createdAt,value
2018-07-16T00:00:43.741Z,1005.85
2018-07-16T00:01:43.745Z,1005.86
2018-07-16T00:02:43.747Z,1005.86
2018-07-16T00:03:43.752Z,1005.82
2018-07-16T00:04:43.755Z,1005.82
2018-07-16T00:05:43.758Z,1005.85
2018-07-16T00:06:43.762Z,1005.80
2018-07-16T00:07:43.766Z,1005.85
2018-07-16T00:08:43.773Z,1005.84
2018-07-16T00:09:43.772Z,1005.85
2018-07-16T00:10:43.776Z,1005.81
2018-07-16T00:11:43.780Z,1005.86
2018-07-16T00:12:43.784Z,1005.80
2018-07-16T00:13:43.786Z,1005.79
2018-07-16T00:14:43.870Z,1005.80
2018-07-16T00:15:43.798Z,1005.81
2018-07-16T00:16:43.798Z,1005.78
2018-07-16T00:17:43.801Z,1005.78
2018-07-16T00:18:43.805Z,1005.75
2018-07-16T00:19:43.807Z,1005.74
2018-07-16T00:20:43.812Z,1005.71
2018-07-16T00:21:43.815Z,1005.77
2018-07-16T00:22:43.820Z,1005.74
2018-07-16T00:23:43.823Z,1005.74
2018-07-16T00:24:43.828Z,1005.76
2018-07-16T00:25:43.829Z,1005.71
2018-07-16T00:26:43.833Z,1005.71
2018-07-16T00:27:43.835Z,1005.75
2018-07-16T00:28:43.841Z,1005.71
2018-07-16T00:29:43.842Z,1005.75
2018-07-16T00:30:43.845Z,1005.74
2018-07-16T00:31:43.849Z,1005.77
2018-07-16T00:32:43.856Z,1005.72
2018-07-16T00:33:43.856Z,1005.70
2018-07-16T00:34:43.859Z,1005.69
2018-07-16T00:35:43.863Z,1005.71
2018-07-16T00:36:43.868Z,1005.69
2018-07-16T00:37:43.870Z,1005.70
2018-07-16T00:38:43.874Z,1005.64
2018-07-16T00:39:43.877Z,1005.68
2018-07-16T00:40:43.881Z,1005.64
2018-07-16T00:41:43.882Z,1005.66
2018-07-16T00:42:43.886Z,1005.67
2018-07-16T00:43:43.892Z,1005.63
2018-07-16T00:44:43.947Z,1005.65
2018-07-16T00:45:43.897Z,1005.64
2018-07-16T00:46:43.899Z,1005.67
2018-07-16T00:47:43.904Z,1005.64
2018-07-16T00:48:43.906Z,1005.62
2018-07-16T00:49:43.909Z,1005.62
2018-07-16T00:50:43.914Z,1005.59
2018-07-16T00:51:43.916Z,1005.57
2018-07-16T00:52:43.920Z,1005.59
2018-07-16T00:53:43.922Z,1005.54
2018-07-16T00:54:43.926Z,1005.57
2018-07-16T00:55:43.937Z,1005.57
2018-07-16T00:56:43.933Z,1005.62
2018-07-16T00:57:43.937Z,1005.53
2018-07-16T00:58:43.939Z,1005.55
2018-07-16T00:59:43.942Z,1005.55
2018-07-16T01:00:43.946Z,1005.52
2018-07-16T01:01:43.948Z,1005.50
2018-07-16T01:02:43.952Z,1005.48
2018-07-16T01:03:43.955Z,1005.48
2018-07-16T01:04:43.958Z,1005.47
2018-07-16T01:05:43.961Z,1005.45
2018-07-16T01:06:43.965Z,1005.48
2018-07-16T01:07:43.968Z,1005.49
2018-07-16T01:08:43.971Z,1005.45
2018-07-16T01:09:43.974Z,1005.45
2018-07-16T01:10:43.976Z,1005.51
2018-07-16T01:11:43.981Z,1005.46
2018-07-16T01:12:43.984Z,1005.49
2018-07-16T01:13:43.986Z,1005.44
2018-07-16T01:14:43.988Z,1005.46
2018-07-16T01:15:43.993Z,1005.46
2018-07-16T01:16:43.998Z,1005.44
2018-07-16T01:17:43.998Z,1005.47
2018-07-16T01:18:44.001Z,1005.48
2018-07-16T01:19:44.004Z,1005.43
2018-07-16T01:20:44.007Z,1005.45
2018-07-16T01:21:44.011Z,1005.42
2018-07-16T01:22:44.013Z,1005.44
2018-07-16T01:23:44.016Z,1005.45
2018-07-16T01:24:44.018Z,1005.41
2018-07-16T01:25:44.021Z,1005.44
2018-07-16T01:26:44.025Z,1005.40
2018-07-16T01:27:44.028Z,1005.42
2018-07-16T01:28:44.031Z,1005.43
2018-07-16T01:29:44.033Z,1005.39
2018-07-16T01:30:44.037Z,1005.40
2018-07-16T01:31:44.039Z,1005.40
2018-07-16T01:32:44.046Z,1005.38
2018-07-16T01:33:44.045Z,1005.34
2018-07-16T01:34:44.048Z,1005.34
2018-07-16T01:35:44.052Z,1005.36
2018-07-16T01:36:44.054Z,1005.32
2018-07-16T01:37:44.058Z,1005.33
2018-07-16T01:38:44.061Z,1005.28
2018-07-16T01:39:44.063Z,1005.26
2018-07-16T01:40:44.065Z,1005.29
2018-07-16T01:41:44.067Z,1005.28
2018-07-16T01:42:44.075Z,1005.26
2018-07-16T01:43:44.074Z,1005.27
2018-07-16T01:44:44.079Z,1005.23
2018-07-16T01:45:44.079Z,1005.22
2018-07-16T01:46:44.085Z,1005.24
2018-07-16T01:47:44.087Z,1005.22
2018-07-16T01:48:44.089Z,1005.22
2018-07-16T01:49:44.091Z,1005.25
2018-07-16T01:50:44.093Z,1005.22
2018-07-16T01:51:44.096Z,1005.17
2018-07-16T01:52:44.100Z,1005.17
2018-07-16T01:53:44.102Z,1005.17
2018-07-16T01:54:44.104Z,1005.17
2018-07-16T01:55:44.107Z,1005.16
2018-07-16T01:56:44.111Z,1005.13
2018-07-16T01:57:44.112Z,1005.15
2018-07-16T01:58:44.115Z,1005.11
2018-07-16T01:59:44.118Z,1005.09
2018-07-16T02:00:44.122Z,1005.12
2018-07-16T02:01:44.122Z,1005.09
2018-07-16T02:02:44.127Z,1005.09
2018-07-16T02:03:44.161Z,1005.07
2018-07-16T02:04:44.132Z,1005.04
2018-07-16T02:05:44.133Z,1005.07
2018-07-16T02:06:44.138Z,1005.04
2018-07-16T02:07:44.139Z,1005.05
2018-07-16T02:08:44.149Z,1005.02
2018-07-16T02:09:44.144Z,1004.97
2018-07-16T02:10:44.146Z,1004.99
2018-07-16T02:11:44.150Z,1004.95
2018-07-16T02:12:44.153Z,1004.96
2018-07-16T02:13:44.155Z,1004.99
2018-07-16T02:14:44.158Z,1004.99
2018-07-16T02:15:44.161Z,1004.95
2018-07-16T02:16:44.163Z,1004.96
2018-07-16T02:17:44.165Z,1004.94
2018-07-16T02:18:44.168Z,1004.97
2018-07-16T02:19:44.172Z,1004.90
2018-07-16T02:20:44.177Z,1004.93
2018-07-16T02:21:44.175Z,1004.91
2018-07-16T02:22:44.178Z,1004.90
2018-07-16T02:23:44.180Z,1004.89
2018-07-16T02:24:44.185Z,1004.93
2018-07-16T02:25:44.185Z,1004.94
2018-07-16T02:26:44.189Z,1004.94
2018-07-16T02:27:44.190Z,1004.95
2018-07-16T02:28:44.197Z,1004.92
2018-07-16T02:29:44.195Z,1004.97
2018-07-16T02:30:44.198Z,1004.92
2018-07-16T02:31:44.200Z,1004.92
2018-07-16T02:32:44.207Z,1004.92
2018-07-16T02:33:44.205Z,1004.90
2018-07-16T02:34:44.207Z,1004.91
2018-07-16T02:35:44.211Z,1004.88
2018-07-16T02:36:44.213Z,1004.90
2018-07-16T02:37:44.215Z,1004.88
2018-07-16T02:38:44.218Z,1004.86
2018-07-16T02:39:44.221Z,1004.86
2018-07-16T02:40:44.223Z,1004.82
2018-07-16T02:41:44.225Z,1004.86
2018-07-16T02:42:44.226Z,1004.83
2018-07-16T02:43:44.231Z,1004.86
2018-07-16T02:44:44.232Z,1004.84
2018-07-16T02:45:44.235Z,1004.81
2018-07-16T02:46:44.237Z,1004.88
2018-07-16T02:47:44.240Z,1004.87
2018-07-16T02:48:44.245Z,1004.88
2018-07-16T02:49:44.244Z,1004.87
2018-07-16T02:50:44.248Z,1004.88
2018-07-16T02:51:44.248Z,1004.89
2018-07-16T02:52:44.253Z,1004.89
2018-07-16T02:53:44.253Z,1004.89
2018-07-16T02:54:44.261Z,1004.90
2018-07-16T02:55:44.258Z,1004.87
2018-07-16T02:56:44.260Z,1004.87
2018-07-16T02:57:44.262Z,1004.82
2018-07-16T02:58:44.265Z,1004.85
2018-07-16T02:59:44.269Z,1004.88
2018-07-16T03:00:44.271Z,1004.89
2018-07-16T03:01:44.271Z,1004.87
2018-07-16T03:02:44.274Z,1004.89
2018-07-16T03:03:44.276Z,1004.86
2018-07-16T03:04:44.281Z,1004.88
2018-07-16T03:05:44.280Z,1004.88
2018-07-16T03:06:44.284Z,1004.85
2018-07-16T03:07:44.285Z,1004.87
2018-07-16T03:08:44.287Z,1004.84
2018-07-16T03:09:44.289Z,1004.89
2018-07-16T03:10:44.291Z,1004.88
2018-07-16T03:11:44.293Z,1004.86
2018-07-16T03:12:44.296Z,1004.90
2018-07-16T03:13:44.298Z,1004.88
2018-07-16T03:14:44.300Z,1004.87
2018-07-16T03:15:44.304Z,1004.90
2018-07-16T03:16:44.305Z,1004.95
2018-07-16T03:17:44.308Z,1004.95
2018-07-16T03:18:44.310Z,1004.95
2018-07-16T03:19:44.312Z,1004.96
2018-07-16T03:20:44.313Z,1004.95
2018-07-16T03:21:44.315Z,1004.98
2018-07-16T03:22:44.320Z,1004.97
2018-07-16T03:23:44.321Z,1004.97
2018-07-16T03:24:44.325Z,1005.01
2018-07-16T03:25:44.325Z,1004.98
2018-07-16T03:26:44.326Z,1004.99
2018-07-16T03:27:44.329Z,1005.00
2018-07-16T03:28:44.332Z,1004.99
2018-07-16T03:29:44.334Z,1004.96
2018-07-16T03:30:44.336Z,1004.96
2018-07-16T03:31:44.338Z,1004.94
2018-07-16T03:32:44.341Z,1004.96
2018-07-16T03:33:44.341Z,1004.95
2018-07-16T03:34:44.345Z,1004.97
2018-07-16T03:35:44.348Z,1004.94
2018-07-16T03:36:44.348Z,1004.97
2018-07-16T03:37:44.350Z,1004.95
2018-07-16T03:38:44.354Z,1004.97
2018-07-16T03:39:44.356Z,1005.00
2018-07-16T03:40:44.357Z,1004.96
2018-07-16T03:41:44.359Z,1004.95
2018-07-16T03:42:44.361Z,1004.97
2018-07-16T03:43:44.362Z,1004.96
2018-07-16T03:44:44.366Z,1004.94
2018-07-16T03:45:44.366Z,1004.95
2018-07-16T03:46:44.369Z,1004.98
2018-07-16T03:47:44.371Z,1004.93
2018-07-16T03:48:44.374Z,1004.94
2018-07-16T03:49:44.376Z,1004.93
2018-07-16T03:50:44.378Z,1004.95
2018-07-16T03:51:44.380Z,1004.96
2018-07-16T03:52:44.382Z,1004.92
2018-07-16T03:53:44.384Z,1004.92
2018-07-16T03:54:44.386Z,1004.92
2018-07-16T03:55:44.447Z,1004.92
2018-07-16T03:56:44.390Z,1004.88
2018-07-16T03:57:44.392Z,1004.85
2018-07-16T03:58:44.394Z,1004.82
2018-07-16T03:59:44.396Z,1004.82
2018-07-16T04:00:44.398Z,1004.79
2018-07-16T04:01:44.488Z,1004.80
2018-07-16T04:02:44.403Z,1004.77
2018-07-16T04:03:44.405Z,1004.78
2018-07-16T04:04:44.409Z,1004.76
2018-07-16T04:05:44.408Z,1004.79
2018-07-16T04:06:44.411Z,1004.82
2018-07-16T04:07:44.414Z,1004.78
2018-07-16T04:08:44.415Z,1004.81
2018-07-16T04:09:44.418Z,1004.82
2018-07-16T04:10:44.419Z,1004.77
2018-07-16T04:11:44.422Z,1004.78
2018-07-16T04:12:44.423Z,1004.81
2018-07-16T04:13:44.425Z,1004.81
2018-07-16T04:14:44.429Z,1004.78
2018-07-16T04:15:44.429Z,1004.78
2018-07-16T04:16:44.432Z,1004.80
2018-07-16T04:17:44.433Z,1004.77
2018-07-16T04:18:44.435Z,1004.77
2018-07-16T04:19:44.438Z,1004.80
2018-07-16T04:20:44.440Z,1004.82
2018-07-16T04:21:44.442Z,1004.83
2018-07-16T04:22:44.444Z,1004.84
2018-07-16T04:23:44.446Z,1004.80
2018-07-16T04:24:44.448Z,1004.85
2018-07-16T04:25:44.450Z,1004.82
2018-07-16T04:26:44.453Z,1004.83
2018-07-16T04:27:44.454Z,1004.86
2018-07-16T04:28:44.456Z,1004.85
2018-07-16T04:29:44.458Z,1004.84
2018-07-16T04:30:44.461Z,1004.86
2018-07-16T04:31:44.467Z,1004.85
2018-07-16T04:32:44.465Z,1004.86
2018-07-16T04:33:44.467Z,1004.85
2018-07-16T04:34:44.471Z,1004.90
2018-07-16T04:35:44.472Z,1004.84
2018-07-16T04:36:44.480Z,1004.83
2018-07-16T04:37:44.475Z,1004.87
2018-07-16T04:38:44.479Z,1004.86
2018-07-16T04:39:44.519Z,1004.85
2018-07-16T04:40:44.483Z,1004.84
2018-07-16T04:41:44.485Z,1004.83
2018-07-16T04:42:44.488Z,1004.81
2018-07-16T04:43:44.489Z,1004.83
2018-07-16T04:44:44.494Z,1004.79
2018-07-16T04:45:44.493Z,1004.78
2018-07-16T04:46:44.496Z,1004.79
2018-07-16T04:47:44.499Z,1004.81
2018-07-16T04:48:44.500Z,1004.75
2018-07-16T04:49:44.502Z,1004.79
2018-07-16T04:50:44.504Z,1004.79
2018-07-16T04:51:44.507Z,1004.80
2018-07-16T04:52:44.510Z,1004.78
2018-07-16T04:53:44.512Z,1004.73
2018-07-16T04:54:44.517Z,1004.78
2018-07-16T04:55:44.518Z,1004.75
2018-07-16T04:56:44.518Z,1004.77
2018-07-16T04:57:44.521Z,1004.79
2018-07-16T04:58:44.523Z,1004.75
2018-07-16T04:59:44.526Z,1004.79
2018-07-16T05:00:44.529Z,1004.80
2018-07-16T05:01:44.530Z,1004.78
2018-07-16T05:02:44.534Z,1004.77
2018-07-16T05:03:44.535Z,1004.78
2018-07-16T05:04:44.538Z,1004.81
2018-07-16T05:05:44.542Z,1004.79
2018-07-16T05:06:44.542Z,1004.76
2018-07-16T05:07:44.549Z,1004.81
2018-07-16T05:08:44.549Z,1004.79
2018-07-16T05:09:44.550Z,1004.83
2018-07-16T05:10:44.553Z,1004.82
2018-07-16T05:11:44.559Z,1004.81
2018-07-16T05:12:44.558Z,1004.86
2018-07-16T05:13:44.559Z,1004.84
2018-07-16T05:14:44.563Z,1004.82
2018-07-16T05:15:44.566Z,1004.88
2018-07-16T05:16:44.568Z,1004.87
2018-07-16T05:17:44.570Z,1004.85
2018-07-16T05:18:44.573Z,1004.86
2018-07-16T05:19:44.577Z,1004.84
2018-07-16T05:20:44.579Z,1004.83
2018-07-16T05:21:44.582Z,1004.94
2018-07-16T05:22:44.585Z,1005.01
2018-07-16T05:23:44.588Z,1004.92
2018-07-16T05:24:44.591Z,1004.88
2018-07-16T05:25:44.593Z,1004.90
2018-07-16T05:26:44.599Z,1004.82
2018-07-16T05:27:44.602Z,1004.81
2018-07-16T05:28:44.607Z,1004.81
2018-07-16T05:29:44.612Z,1004.80
2018-07-16T05:30:44.617Z,1004.81
2018-07-16T05:31:44.645Z,1004.80
2018-07-16T05:32:44.667Z,1004.84
2018-07-16T05:33:44.633Z,1004.78
2018-07-16T05:34:44.640Z,1004.78
2018-07-16T05:35:44.647Z,1004.75
2018-07-16T05:36:44.654Z,1004.73
2018-07-16T05:37:44.659Z,1004.72
2018-07-16T05:38:44.665Z,1004.73
2018-07-16T05:39:44.670Z,1004.70
2018-07-16T05:40:44.677Z,1004.67
2018-07-16T05:41:44.682Z,1004.72
2018-07-16T05:42:44.688Z,1004.73
2018-07-16T05:43:44.694Z,1004.73
2018-07-16T05:44:44.700Z,1004.74
2018-07-16T05:45:44.705Z,1004.74
2018-07-16T05:46:44.712Z,1004.73
2018-07-16T05:47:44.717Z,1004.75
2018-07-16T05:48:44.724Z,1004.75
2018-07-16T05:49:44.729Z,1004.74
2018-07-16T05:50:44.734Z,1004.74
2018-07-16T05:51:44.740Z,1004.69
2018-07-16T05:52:44.745Z,1004.72
2018-07-16T05:53:44.750Z,1004.69
2018-07-16T05:54:44.757Z,1004.69
2018-07-16T05:55:44.762Z,1004.66
2018-07-16T05:56:44.766Z,1004.67
2018-07-16T05:57:44.770Z,1004.68
2018-07-16T05:58:44.777Z,1004.70
2018-07-16T05:59:44.782Z,1004.72
2018-07-16T06:00:44.786Z,1004.69
2018-07-16T06:01:44.792Z,1004.74
2018-07-16T06:02:44.798Z,1004.72
2018-07-16T06:03:44.801Z,1004.70
2018-07-16T06:04:44.808Z,1004.68
2018-07-16T06:05:44.812Z,1004.70
2018-07-16T06:06:44.815Z,1004.67
2018-07-16T06:07:44.821Z,1004.68
2018-07-16T06:08:44.854Z,1004.66
2018-07-16T06:09:44.834Z,1004.66
2018-07-16T06:10:44.836Z,1004.68
2018-07-16T06:11:44.842Z,1004.65
2018-07-16T06:12:44.846Z,1004.69
2018-07-16T06:13:44.850Z,1004.70
2018-07-16T06:14:44.856Z,1004.71
2018-07-16T06:15:44.861Z,1004.70
2018-07-16T06:16:44.887Z,1004.72
2018-07-16T06:17:44.875Z,1004.70
2018-07-16T06:18:44.874Z,1004.71
2018-07-16T06:19:44.880Z,1004.65
2018-07-16T06:20:44.886Z,1004.68
2018-07-16T06:21:44.889Z,1004.67
2018-07-16T06:22:44.894Z,1004.67
2018-07-16T06:23:44.901Z,1004.64
2018-07-16T06:24:44.904Z,1004.62
2018-07-16T06:26:44.913Z,1004.68
2018-07-16T06:27:44.919Z,1004.67
2018-07-16T06:28:44.923Z,1004.66
2018-07-16T06:29:44.927Z,1004.64
2018-07-16T06:30:44.933Z,1004.65
2018-07-16T06:31:44.937Z,1004.64
2018-07-16T06:32:44.942Z,1004.63
2018-07-16T06:33:44.947Z,1004.58
2018-07-16T06:34:44.952Z,1004.60
2018-07-16T06:35:44.956Z,1004.58
2018-07-16T06:38:44.969Z,1004.57
2018-07-16T06:39:45.058Z,1004.54
2018-07-16T06:40:45.145Z,1004.56
2018-07-16T06:41:44.982Z,1004.53
2018-07-16T06:42:44.987Z,1004.58
2018-07-16T06:43:44.991Z,1004.59
2018-07-16T06:44:44.996Z,1004.57
2018-07-16T06:45:45.000Z,1004.56
2018-07-16T06:46:45.006Z,1004.56
2018-07-16T06:47:45.049Z,1004.61
2018-07-16T06:48:45.015Z,1004.60
2018-07-16T06:49:45.020Z,1004.62
2018-07-16T06:50:45.025Z,1004.62
2018-07-16T06:51:45.030Z,1004.60
2018-07-16T06:52:45.034Z,1004.62
2018-07-16T06:53:45.040Z,1004.61
2018-07-16T06:54:45.044Z,1004.68
2018-07-16T06:55:45.049Z,1004.65
2018-07-16T06:56:45.055Z,1004.65
2018-07-16T06:57:45.059Z,1004.72
2018-07-16T06:58:45.063Z,1004.68
2018-07-16T06:59:45.068Z,1004.65
2018-07-16T07:00:45.074Z,1004.71
2018-07-16T07:01:45.077Z,1004.63
2018-07-16T07:02:45.084Z,1004.64
2018-07-16T07:03:45.094Z,1004.61
2018-07-16T07:04:45.093Z,1004.62
2018-07-16T07:05:45.097Z,1004.59
2018-07-16T07:06:45.104Z,1004.62
2018-07-16T07:07:45.110Z,1004.58
2018-07-16T07:08:45.116Z,1004.62
2018-07-16T07:09:45.119Z,1004.60
2018-07-16T07:10:45.124Z,1004.63
2018-07-16T07:11:45.130Z,1004.63
2018-07-16T07:12:45.135Z,1004.62
2018-07-16T07:13:45.144Z,1004.63
2018-07-16T07:14:45.144Z,1004.61
2018-07-16T07:15:45.149Z,1004.61
2018-07-16T07:16:45.155Z,1004.63
2018-07-16T07:17:45.159Z,1004.61
2018-07-16T07:18:45.164Z,1004.61
2018-07-16T07:19:45.169Z,1004.61
2018-07-16T07:20:45.176Z,1004.63
2018-07-16T07:21:45.180Z,1004.61
2018-07-16T07:22:45.187Z,1004.62
2018-07-16T07:23:45.192Z,1004.63
2018-07-16T07:24:45.196Z,1004.62
2018-07-16T07:25:45.207Z,1004.59
2018-07-16T07:26:45.207Z,1004.61
2018-07-16T07:27:45.214Z,1004.58
2018-07-16T07:28:45.218Z,1004.57
2018-07-16T07:29:45.223Z,1004.57
2018-07-16T07:30:45.230Z,1004.56
2018-07-16T07:31:45.236Z,1004.55
2018-07-16T07:32:45.240Z,1004.57
2018-07-16T07:33:45.245Z,1004.54
2018-07-16T07:34:45.253Z,1004.55
2018-07-16T07:35:45.349Z,1004.58
2018-07-16T07:36:45.268Z,1004.54
2018-07-16T07:37:45.267Z,1004.55
2018-07-16T07:38:45.289Z,1004.49
2018-07-16T07:39:45.279Z,1004.51
2018-07-16T07:40:45.285Z,1004.53
2018-07-16T07:41:45.292Z,1004.61
2018-07-16T07:42:45.297Z,1004.73
2018-07-16T07:43:45.305Z,1004.98
2018-07-16T07:44:45.312Z,1005.11
2018-07-16T07:45:45.319Z,1005.36
2018-07-16T07:46:45.327Z,1005.35
2018-07-16T07:47:45.405Z,1005.43
2018-07-16T07:48:45.344Z,1005.56
2018-07-16T07:49:45.354Z,1005.62
2018-07-16T07:50:45.362Z,1005.68
2018-07-16T07:51:45.374Z,1005.64
2018-07-16T07:52:45.383Z,1005.68
2018-07-16T07:53:45.395Z,1005.70
2018-07-16T07:54:45.580Z,1005.71
2018-07-16T07:55:45.431Z,1005.72
2018-07-16T07:56:45.432Z,1005.75
2018-07-16T07:57:45.444Z,1005.79
2018-07-16T07:58:45.460Z,1005.81
2018-07-16T07:59:45.471Z,1005.80
2018-07-16T08:00:45.487Z,1005.79
2018-07-16T08:01:45.500Z,1005.78
2018-07-16T08:02:45.513Z,1005.78
2018-07-16T08:03:45.531Z,1005.71
2018-07-16T08:04:45.544Z,1005.72
2018-07-16T08:05:45.558Z,1005.74
2018-07-16T08:06:45.572Z,1005.75
2018-07-16T08:07:45.589Z,1005.71
2018-07-16T08:08:45.602Z,1005.78
2018-07-16T08:09:45.618Z,1005.72
2018-07-16T08:10:45.632Z,1005.71
2018-07-16T08:11:45.647Z,1005.70
2018-07-16T08:12:45.663Z,1005.66
2018-07-16T08:13:45.717Z,1005.66
2018-07-16T08:14:45.694Z,1005.66
2018-07-16T08:15:45.710Z,1005.69
2018-07-16T08:16:45.724Z,1005.63
2018-07-16T08:17:45.740Z,1005.62
2018-07-16T08:18:45.757Z,1005.61
2018-07-16T08:19:45.773Z,1005.63
2018-07-16T08:20:45.791Z,1005.60
2018-07-16T08:21:45.803Z,1005.55
2018-07-16T08:22:45.820Z,1005.58
2018-07-16T08:23:45.836Z,1005.54
2018-07-16T08:24:45.853Z,1005.53
2018-07-16T08:25:45.868Z,1005.53
2018-07-16T08:26:45.885Z,1005.46
2018-07-16T08:27:45.903Z,1005.45
2018-07-16T08:28:45.918Z,1005.44
2018-07-16T08:29:45.934Z,1005.38
2018-07-16T08:30:45.953Z,1005.35
2018-07-16T08:31:45.968Z,1005.30
2018-07-16T08:32:45.986Z,1005.23
2018-07-16T08:33:46.032Z,1005.11
2018-07-16T08:34:46.018Z,1005.07
2018-07-16T08:35:46.036Z,1005.00
2018-07-16T08:36:46.053Z,1004.98
2018-07-16T08:37:46.068Z,1004.95
2018-07-16T08:38:46.085Z,1004.99
2018-07-16T08:39:46.103Z,1005.02
2018-07-16T08:40:46.122Z,1004.98
2018-07-16T08:41:46.136Z,1004.98
2018-07-16T08:42:46.153Z,1005.01
2018-07-16T08:43:46.171Z,1005.04
2018-07-16T08:44:46.190Z,1005.05
2018-07-16T08:45:46.206Z,1004.99
2018-07-16T08:46:46.222Z,1004.99
2018-07-16T08:47:46.241Z,1005.04
2018-07-16T08:48:46.258Z,1005.01
2018-07-16T08:49:46.274Z,1005.06
2018-07-16T08:50:46.291Z,1005.03
2018-07-16T08:51:46.308Z,1004.97
2018-07-16T08:52:46.398Z,1004.97
2018-07-16T08:53:46.344Z,1004.98
2018-07-16T08:54:46.359Z,1004.99
2018-07-16T08:55:46.379Z,1005.04
2018-07-16T08:56:46.395Z,1005.04
2018-07-16T08:57:46.411Z,1005.04
2018-07-16T08:58:46.429Z,1004.94
2018-07-16T08:59:46.446Z,1005.07
2018-07-16T09:00:46.469Z,1005.06
2018-07-16T09:01:46.480Z,1005.03
2018-07-16T09:02:46.498Z,1005.06
2018-07-16T09:03:46.515Z,1005.07
2018-07-16T09:04:46.532Z,1005.05
2018-07-16T09:05:46.549Z,1005.04
2018-07-16T09:06:46.566Z,1005.00
2018-07-16T09:07:46.583Z,1004.98
2018-07-16T09:08:46.601Z,1004.96
2018-07-16T09:09:46.618Z,1005.02
2018-07-16T09:10:46.700Z,1005.04
2018-07-16T09:11:46.710Z,1005.00
2018-07-16T09:12:46.670Z,1005.03
2018-07-16T09:13:46.690Z,1005.02
2018-07-16T09:14:46.703Z,1005.05
2018-07-16T09:15:46.720Z,1005.02
2018-07-16T09:16:46.801Z,1005.06
2018-07-16T09:17:46.755Z,1005.04
2018-07-16T09:18:46.772Z,1005.03
2018-07-16T09:19:46.790Z,1005.04
2018-07-16T09:20:46.806Z,1005.07
2018-07-16T09:21:46.824Z,1005.05
2018-07-16T09:22:46.841Z,1005.05
2018-07-16T09:23:46.863Z,1005.03
2018-07-16T09:24:46.876Z,1005.05
2018-07-16T09:25:46.893Z,1005.06
2018-07-16T09:26:46.909Z,1005.03
2018-07-16T09:27:46.926Z,1004.99
2018-07-16T09:28:46.944Z,1005.03
2018-07-16T09:29:46.960Z,1004.99
2018-07-16T09:30:46.979Z,1005.00
2018-07-16T09:31:46.994Z,1005.03
2018-07-16T09:32:47.097Z,1005.03
2018-07-16T09:33:47.029Z,1005.04
2018-07-16T09:34:47.046Z,1005.09
2018-07-16T09:35:47.065Z,1005.10
2018-07-16T09:36:47.080Z,1005.07
2018-07-16T09:37:47.098Z,1005.11
2018-07-16T09:38:47.116Z,1005.10
2018-07-16T09:39:47.133Z,1005.08
2018-07-16T09:40:47.152Z,1005.09
2018-07-16T09:41:47.167Z,1005.06
2018-07-16T09:42:47.187Z,1005.08
2018-07-16T09:43:47.205Z,1005.12
2018-07-16T09:44:47.247Z,1005.12
2018-07-16T09:45:47.236Z,1005.14
2018-07-16T09:46:47.257Z,1005.10
2018-07-16T09:47:47.271Z,1005.19
2018-07-16T09:48:47.289Z,1005.14
2018-07-16T09:49:47.307Z,1005.02
2018-07-16T09:50:47.324Z,1005.16
2018-07-16T09:51:47.342Z,1005.12
2018-07-16T09:52:47.358Z,1005.08
2018-07-16T09:53:47.377Z,1005.09
2018-07-16T09:54:47.393Z,1005.10
2018-07-16T09:55:47.410Z,1005.11
2018-07-16T09:56:47.428Z,1005.09
2018-07-16T09:57:47.445Z,1005.10
2018-07-16T09:58:47.462Z,1005.09
2018-07-16T09:59:47.481Z,1005.10
2018-07-16T10:00:47.496Z,1005.13
2018-07-16T10:01:47.514Z,1005.09
2018-07-16T10:02:47.531Z,1005.04
2018-07-16T10:03:47.549Z,1005.09
2018-07-16T10:04:47.568Z,1005.17
2018-07-16T10:05:47.582Z,1005.13
2018-07-16T10:06:47.602Z,1005.13
2018-07-16T10:07:47.618Z,1005.13
2018-07-16T10:08:47.635Z,1005.12
2018-07-16T10:09:47.652Z,1005.16
2018-07-16T10:10:47.670Z,1005.16
2018-07-16T10:11:47.688Z,1005.13
2018-07-16T10:12:47.705Z,1005.15
2018-07-16T10:13:47.724Z,1005.12
2018-07-16T10:14:47.739Z,1005.14
2018-07-16T10:15:47.755Z,1005.08
2018-07-16T10:16:47.774Z,1005.05
2018-07-16T10:17:47.790Z,1005.03
2018-07-16T10:18:47.809Z,1005.02
2018-07-16T10:19:47.826Z,1005.04
2018-07-16T10:20:47.842Z,1005.04
2018-07-16T10:21:47.859Z,1005.05
2018-07-16T10:22:47.876Z,1005.03
2018-07-16T10:23:47.893Z,1005.00
2018-07-16T10:24:47.911Z,1005.04
2018-07-16T10:25:47.929Z,1005.04
2018-07-16T10:26:47.943Z,1005.06
2018-07-16T10:27:47.960Z,1005.00
2018-07-16T10:28:47.978Z,1005.07
2018-07-16T10:29:47.994Z,1005.04
2018-07-16T10:30:48.011Z,1005.08
2018-07-16T10:31:48.028Z,1005.02
2018-07-16T10:32:48.045Z,1005.05
2018-07-16T10:33:48.148Z,1005.02
2018-07-16T10:34:48.078Z,1005.02
2018-07-16T10:35:48.094Z,1005.01
2018-07-16T10:36:48.111Z,1005.07
2018-07-16T10:37:48.128Z,1005.02
2018-07-16T10:38:48.144Z,1005.03
2018-07-16T10:39:48.160Z,1005.02
2018-07-16T10:40:48.178Z,1004.97
2018-07-16T10:41:48.196Z,1004.95
2018-07-16T10:42:48.209Z,1004.94
2018-07-16T10:43:48.227Z,1004.93
2018-07-16T10:44:48.242Z,1004.89
2018-07-16T10:45:48.259Z,1004.95
2018-07-16T10:46:48.275Z,1004.92
2018-07-16T10:47:48.293Z,1004.87
2018-07-16T10:48:48.308Z,1004.83
2018-07-16T10:49:48.343Z,1004.83
2018-07-16T10:50:48.340Z,1004.79
2018-07-16T10:51:48.357Z,1004.88
2018-07-16T10:52:48.372Z,1004.82
2018-07-16T10:53:48.387Z,1004.80
2018-07-16T10:54:48.404Z,1004.78
2018-07-16T10:55:48.420Z,1004.78
2018-07-16T10:56:48.436Z,1004.77
2018-07-16T10:57:48.456Z,1004.72
2018-07-16T10:58:48.468Z,1004.73
2018-07-16T10:59:48.485Z,1004.71
2018-07-16T11:00:48.502Z,1004.75
2018-07-16T11:01:48.516Z,1004.72
2018-07-16T11:02:48.534Z,1004.69
2018-07-16T11:03:48.552Z,1004.70
2018-07-16T11:04:48.566Z,1004.65
2018-07-16T11:05:48.580Z,1004.60
2018-07-16T11:06:48.597Z,1004.60
2018-07-16T11:07:48.612Z,1004.58
2018-07-16T11:08:48.629Z,1004.62
2018-07-16T11:09:48.644Z,1004.62
2018-07-16T11:10:48.659Z,1004.59
2018-07-16T11:11:48.680Z,1004.56
2018-07-16T11:12:48.692Z,1004.55
2018-07-16T11:13:48.705Z,1004.50
2018-07-16T11:14:48.787Z,1004.48
2018-07-16T11:15:48.737Z,1004.46
2018-07-16T11:16:48.752Z,1004.45
2018-07-16T11:17:48.767Z,1004.49
2018-07-16T11:18:48.782Z,1004.45
2018-07-16T11:19:48.801Z,1004.46
2018-07-16T11:20:48.833Z,1004.43
2018-07-16T11:21:48.828Z,1004.34
2018-07-16T11:22:48.844Z,1004.39
2018-07-16T11:23:48.859Z,1004.43
2018-07-16T11:24:48.874Z,1004.39
2018-07-16T11:25:48.890Z,1004.34
2018-07-16T11:26:48.906Z,1004.31
2018-07-16T11:27:48.918Z,1004.25
2018-07-16T11:28:48.934Z,1004.12
2018-07-16T11:29:48.949Z,1004.03
2018-07-16T11:30:48.964Z,1003.95
2018-07-16T11:31:48.976Z,1004.04
2018-07-16T11:32:48.991Z,1004.05
2018-07-16T11:33:49.005Z,1003.94
2018-07-16T11:34:49.020Z,1003.92
2018-07-16T11:35:49.077Z,1004.01
2018-07-16T11:36:49.048Z,1003.91
2018-07-16T11:37:49.063Z,1003.98
2018-07-16T11:38:49.079Z,1003.93
2018-07-16T11:39:49.090Z,1003.94
2018-07-16T11:40:49.104Z,1003.94
2018-07-16T11:41:49.116Z,1003.97
2018-07-16T11:42:49.129Z,1003.93
2018-07-16T11:43:49.145Z,1003.96
2018-07-16T11:44:49.157Z,1003.90
2018-07-16T11:45:49.170Z,1003.92
2018-07-16T11:46:49.183Z,1003.89
2018-07-16T11:47:49.197Z,1003.88
2018-07-16T11:48:49.209Z,1003.86
2018-07-16T11:49:49.221Z,1003.83
2018-07-16T11:50:49.237Z,1003.84
2018-07-16T11:51:49.249Z,1003.80
2018-07-16T11:52:49.261Z,1003.77
2018-07-16T11:53:49.272Z,1003.74
2018-07-16T11:54:49.287Z,1003.70
2018-07-16T11:55:49.298Z,1003.73
2018-07-16T11:56:49.316Z,1003.70
2018-07-16T11:57:49.324Z,1003.70
2018-07-16T11:58:49.373Z,1003.62
2018-07-16T11:59:49.348Z,1003.62
2018-07-16T12:00:49.362Z,1003.62
2018-07-16T12:01:49.385Z,1003.65
2018-07-16T12:02:49.385Z,1003.58
2018-07-16T12:03:49.398Z,1003.58
2018-07-16T12:04:49.409Z,1003.58
2018-07-16T12:05:49.422Z,1003.60
2018-07-16T12:06:49.433Z,1003.62
2018-07-16T12:07:49.448Z,1003.64
2018-07-16T12:08:49.459Z,1003.60